createdAt,value
2023-03-26T00:01:39.287Z,13.50
2023-03-26T00:04:07.851Z,11.90
2023-03-26T00:06:39.852Z,12.90
2023-03-26T00:09:13.585Z,13.60
2023-03-26T00:11:43.042Z,11.90
2023-03-26T00:14:14.190Z,14.00
2023-03-26T00:16:42.891Z,13.00
2023-03-26T00:19:12.808Z,10.40
2023-03-26T00:21:41.573Z,9.80
2023-03-26T00:24:15.520Z,11.20
2023-03-26T00:26:45.048Z,11.50
2023-03-26T00:29:15.684Z,12.30
2023-03-26T00:31:46.556Z,10.50
2023-03-26T00:34:18.645Z,13.00
2023-03-26T00:36:47.508Z,10.90
2023-03-26T00:39:17.813Z,12.20
2023-03-26T00:41:45.852Z,12.90
2023-03-26T00:44:14.040Z,12.50
2023-03-26T00:46:42.849Z,10.50
2023-03-26T00:49:14.981Z,13.10
2023-03-26T00:51:43.214Z,11.10
2023-03-26T00:54:12.043Z,12.70
2023-03-26T00:56:40.142Z,12.80
2023-03-26T00:59:09.379Z,10.40
2023-03-26T01:01:37.880Z,11.30
2023-03-26T01:04:31.810Z,12.20
2023-03-26T01:07:22.130Z,11.50
2023-03-26T01:09:51.751Z,9.70
2023-03-26T01:12:24.098Z,11.20
2023-03-26T01:14:55.292Z,10.40
2023-03-26T01:17:24.405Z,9.40
2023-03-26T01:20:15.980Z,11.70
2023-03-26T01:22:51.213Z,10.00
2023-03-26T01:25:23.294Z,8.60
2023-03-26T01:27:55.818Z,10.80
2023-03-26T01:30:42.676Z,10.00
2023-03-26T01:33:34.077Z,9.50
2023-03-26T01:36:17.553Z,9.90
2023-03-26T01:39:39.022Z,11.40
2023-03-26T01:42:14.035Z,10.10
2023-03-26T01:44:50.487Z,9.10
2023-03-26T01:47:19.305Z,10.00
2023-03-26T01:49:48.646Z,9.60
2023-03-26T01:52:21.414Z,10.00
2023-03-26T01:54:50.351Z,7.20
2023-03-26T01:57:39.065Z,10.10
2023-03-26T02:00:30.230Z,9.90
2023-03-26T02:03:32.526Z,8.20
2023-03-26T02:06:15.995Z,8.00
2023-03-26T02:08:52.463Z,11.00
2023-03-26T02:11:21.604Z,10.30
2023-03-26T02:13:51.450Z,9.50
2023-03-26T02:16:20.986Z,8.30
2023-03-26T02:18:55.743Z,8.30
2023-03-26T02:21:26.388Z,11.60
2023-03-26T02:24:03.146Z,9.30
2023-03-26T02:26:35.888Z,11.10
2023-03-26T02:29:10.018Z,9.90
2023-03-26T02:31:39.451Z,9.10
2023-03-26T02:34:07.762Z,8.40
2023-03-26T02:36:37.480Z,9.60
2023-03-26T02:39:06.134Z,11.20
2023-03-26T02:41:38.191Z,10.40
2023-03-26T02:44:09.888Z,9.40
2023-03-26T02:46:56.294Z,9.70
2023-03-26T02:49:44.191Z,9.50
2023-03-26T02:52:17.254Z,9.60
2023-03-26T02:54:45.855Z,9.90
2023-03-26T02:57:26.000Z,9.00
2023-03-26T03:00:15.454Z,10.10
2023-03-26T03:02:48.296Z,8.50
2023-03-26T03:05:46.418Z,9.20
2023-03-26T03:08:38.665Z,6.50
2023-03-26T03:11:11.910Z,8.40
2023-03-26T03:13:49.458Z,10.70
2023-03-26T03:16:20.928Z,8.20
2023-03-26T03:18:57.866Z,8.00
2023-03-26T03:21:29.569Z,7.90
2023-03-26T03:24:00.110Z,9.60
2023-03-26T03:26:30.767Z,7.70
2023-03-26T03:29:02.485Z,7.60
2023-03-26T03:31:30.512Z,7.60
2023-03-26T03:34:02.438Z,9.90
2023-03-26T03:36:33.463Z,7.70
2023-03-26T03:39:08.855Z,7.10
2023-03-26T03:41:37.369Z,8.50
2023-03-26T03:44:06.924Z,6.70
2023-03-26T03:46:35.220Z,8.00
2023-03-26T03:49:04.003Z,7.80
2023-03-26T03:51:36.316Z,9.40
2023-03-26T03:54:08.592Z,7.60
2023-03-26T03:56:57.387Z,5.70
2023-03-26T03:59:47.656Z,8.70
2023-03-26T04:02:35.265Z,11.10
2023-03-26T04:05:06.202Z,6.80
2023-03-26T04:07:36.044Z,8.00
2023-03-26T04:10:08.453Z,7.80
2023-03-26T04:12:55.978Z,7.80
2023-03-26T04:15:37.125Z,9.60
2023-03-26T04:18:10.544Z,9.20
2023-03-26T04:20:46.380Z,7.10
2023-03-26T04:23:19.049Z,8.40
2023-03-26T04:25:54.178Z,9.80
2023-03-26T04:28:42.501Z,7.80
2023-03-26T04:31:31.292Z,9.10
2023-03-26T04:34:14.067Z,7.40
2023-03-26T04:36:54.724Z,9.00
2023-03-26T04:39:29.477Z,8.50
2023-03-26T04:42:30.333Z,10.70
2023-03-26T04:45:08.134Z,9.60
2023-03-26T04:47:37.283Z,7.20
2023-03-26T04:50:08.311Z,8.70
2023-03-26T04:52:38.191Z,7.60
2023-03-26T04:55:56.225Z,7.10
2023-03-26T04:58:43.441Z,10.50
2023-03-26T05:01:11.816Z,8.60
2023-03-26T05:03:46.009Z,10.10
2023-03-26T05:06:17.869Z,9.80
2023-03-26T05:08:46.517Z,7.50
2023-03-26T05:11:20.952Z,8.30
2023-03-26T05:13:49.503Z,9.90
2023-03-26T05:16:17.753Z,8.80
2023-03-26T05:18:54.217Z,7.70
2023-03-26T05:21:22.627Z,10.00
2023-03-26T05:23:51.097Z,8.40
2023-03-26T05:26:20.571Z,10.40
2023-03-26T05:28:48.618Z,7.90
2023-03-26T05:31:31.187Z,9.20
2023-03-26T05:34:03.361Z,12.70
2023-03-26T05:36:31.516Z,11.20
2023-03-26T05:39:11.390Z,12.70
2023-03-26T05:41:59.615Z,13.60
2023-03-26T05:44:35.465Z,9.20
2023-03-26T05:47:05.702Z,8.80
2023-03-26T05:49:34.503Z,8.20
2023-03-26T05:52:02.704Z,9.10
2023-03-26T05:54:49.468Z,9.80
2023-03-26T05:57:40.502Z,7.70
2023-03-26T06:00:48.860Z,7.20
2023-03-26T06:03:18.673Z,7.80
2023-03-26T06:06:06.363Z,8.30
2023-03-26T06:09:00.947Z,8.10
2023-03-26T06:11:30.830Z,10.00
2023-03-26T06:13:59.953Z,7.10
2023-03-26T06:16:28.492Z,9.00
2023-03-26T06:19:06.839Z,7.70
2023-03-26T06:21:50.529Z,8.00
2023-03-26T06:24:33.624Z,6.80
2023-03-26T06:27:27.977Z,12.80
2023-03-26T06:30:15.484Z,6.70
2023-03-26T06:33:00.745Z,6.90
2023-03-26T06:35:33.910Z,6.90
2023-03-26T06:38:02.192Z,9.30
2023-03-26T06:40:31.120Z,6.80
2023-03-26T06:43:18.404Z,7.90
2023-03-26T06:46:05.620Z,7.60
2023-03-26T06:49:06.228Z,7.80
2023-03-26T06:51:53.631Z,6.60
2023-03-26T06:54:50.709Z,10.10
2023-03-26T06:57:49.139Z,10.60
2023-03-26T07:00:43.524Z,7.30
2023-03-26T07:03:30.835Z,7.60
2023-03-26T07:06:18.628Z,10.90
2023-03-26T07:09:05.507Z,8.60
2023-03-26T07:12:00.019Z,7.20
2023-03-26T07:14:46.603Z,7.20
2023-03-26T07:17:24.073Z,6.40
2023-03-26T07:20:12.263Z,6.70
2023-03-26T07:22:41.295Z,7.50
2023-03-26T07:25:34.995Z,8.20
2023-03-26T07:28:31.607Z,11.20
2023-03-26T07:31:40.085Z,6.20
2023-03-26T07:34:33.576Z,5.50
2023-03-26T07:38:04.543Z,8.50
2023-03-26T07:41:07.475Z,9.00
2023-03-26T07:44:23.236Z,9.30
2023-03-26T07:47:33.101Z,6.60
2023-03-26T07:50:23.086Z,7.90
2023-03-26T07:53:00.309Z,7.40
2023-03-26T07:56:16.337Z,6.80
2023-03-26T07:59:51.525Z,6.50
2023-03-26T08:03:27.243Z,5.50
2023-03-26T08:06:10.020Z,10.10
2023-03-26T08:09:13.178Z,8.50
2023-03-26T08:12:12.812Z,7.20
2023-03-26T08:14:46.620Z,5.40
2023-03-26T08:17:17.372Z,10.40
2023-03-26T08:19:59.445Z,7.70
2023-03-26T08:22:34.464Z,6.90
2023-03-26T08:25:25.595Z,7.80
2023-03-26T08:28:14.637Z,7.80
2023-03-26T08:30:43.593Z,8.20
2023-03-26T08:33:18.513Z,6.10
2023-03-26T08:35:47.842Z,5.10
2023-03-26T08:38:19.444Z,5.90
2023-03-26T08:41:25.228Z,5.20
2023-03-26T08:44:08.613Z,6.10
2023-03-26T08:47:09.302Z,7.10
2023-03-26T08:50:02.719Z,5.80
2023-03-26T08:53:07.949Z,6.50
2023-03-26T08:55:48.503Z,7.10
2023-03-26T08:58:38.794Z,5.90
2023-03-26T09:01:12.371Z,5.70
2023-03-26T09:04:05.721Z,5.30
2023-03-26T09:07:13.984Z,6.60
2023-03-26T09:09:44.757Z,6.40
2023-03-26T09:12:37.677Z,6.50
2023-03-26T09:15:21.252Z,6.30
2023-03-26T09:18:17.368Z,7.20
2023-03-26T09:20:54.649Z,7.00
2023-03-26T09:24:06.237Z,3.80
2023-03-26T09:26:37.165Z,5.10
2023-03-26T09:29:14.608Z,8.30
2023-03-26T09:31:58.193Z,5.70
2023-03-26T09:34:54.111Z,8.40
2023-03-26T09:37:56.993Z,7.90
2023-03-26T09:40:37.182Z,5.90
2023-03-26T09:43:31.175Z,5.40
2023-03-26T09:46:22.005Z,6.00
2023-03-26T09:49:08.560Z,5.60
2023-03-26T09:52:15.048Z,6.20
2023-03-26T09:54:57.972Z,8.60
2023-03-26T09:58:05.361Z,6.50
2023-03-26T10:01:01.049Z,5.70
2023-03-26T10:04:01.985Z,4.50
2023-03-26T10:06:42.708Z,4.50
2023-03-26T10:09:33.940Z,4.40
2023-03-26T10:12:16.983Z,6.20
2023-03-26T10:15:00.316Z,4.50
2023-03-26T10:18:27.120Z,4.30
2023-03-26T10:21:17.315Z,3.60
2023-03-26T10:23:57.214Z,4.10
2023-03-26T10:26:42.028Z,3.00
2023-03-26T10:29:44.221Z,3.50
2023-03-26T10:32:47.333Z,6.90
2023-03-26T10:35:52.697Z,2.90
2023-03-26T10:38:43.731Z,4.10
2023-03-26T10:41:22.359Z,3.20
2023-03-26T10:44:07.308Z,14.90
2023-03-26T10:46:42.343Z,10.90
2023-03-26T10:49:41.708Z,13.40
2023-03-26T10:52:16.208Z,10.00
2023-03-26T10:54:58.198Z,7.70
2023-03-26T10:57:32.209Z,8.60
2023-03-26T11:00:26.622Z,9.50
2023-03-26T11:03:19.819Z,6.30
2023-03-26T11:06:16.101Z,6.50
2023-03-26T11:08:55.890Z,5.00
2023-03-26T11:11:45.319Z,4.60
2023-03-26T11:14:35.173Z,4.80
2023-03-26T11:17:40.566Z,4.70
2023-03-26T11:20:23.367Z,3.90
2023-03-26T11:23:07.838Z,4.70
2023-03-26T11:25:52.882Z,4.60
2023-03-26T11:28:21.335Z,6.50
2023-03-26T11:31:01.558Z,5.20
2023-03-26T11:33:36.649Z,5.30
2023-03-26T11:36:12.051Z,5.00
2023-03-26T11:38:49.676Z,4.90
2023-03-26T11:41:25.028Z,4.10
2023-03-26T11:44:21.863Z,4.60
2023-03-26T11:46:58.922Z,4.20
2023-03-26T11:49:29.735Z,4.00
2023-03-26T11:51:59.420Z,4.30
2023-03-26T11:54:28.023Z,4.60
2023-03-26T11:57:13.229Z,3.40
2023-03-26T11:59:55.483Z,4.00
2023-03-26T12:02:35.079Z,3.90
2023-03-26T12:05:18.383Z,4.60
2023-03-26T12:07:56.965Z,4.20
2023-03-26T12:10:29.845Z,7.20
2023-03-26T12:13:01.950Z,4.10
2023-03-26T12:15:32.305Z,5.00
2023-03-26T12:18:21.024Z,5.10
2023-03-26T12:20:49.556Z,5.10
2023-03-26T12:24:00.342Z,5.90
2023-03-26T12:26:42.973Z,5.10
2023-03-26T12:29:14.161Z,7.70
2023-03-26T12:31:55.687Z,5.80
2023-03-26T12:34:31.851Z,7.00
2023-03-26T12:37:01.018Z,5.00
2023-03-26T12:40:08.827Z,5.10
2023-03-26T12:44:47.002Z,6.40
2023-03-26T12:45:28.127Z,6.10
2023-03-26T12:48:03.807Z,5.20
2023-03-26T12:50:57.672Z,4.00
2023-03-26T12:53:47.298Z,5.00
2023-03-26T12:56:36.599Z,5.10
2023-03-26T12:59:18.591Z,3.70
2023-03-26T13:02:08.312Z,2.00
2023-03-26T13:05:02.155Z,2.50
2023-03-26T13:08:00.484Z,3.00
2023-03-26T13:10:54.681Z,2.90
2023-03-26T13:13:41.578Z,5.90
2023-03-26T13:16:14.112Z,4.20
2023-03-26T13:19:06.289Z,3.10
2023-03-26T13:22:03.315Z,4.10
2023-03-26T13:25:07.727Z,5.00
2023-03-26T13:28:00.574Z,4.20
2023-03-26T13:30:43.780Z,5.10
2023-03-26T13:33:27.078Z,4.60
2023-03-26T13:36:10.229Z,4.00
2023-03-26T13:38:59.139Z,1.90
2023-03-26T13:41:28.978Z,3.00
2023-03-26T13:44:05.459Z,2.20
2023-03-26T13:46:54.931Z,4.10
2023-03-26T13:49:43.615Z,2.40
2023-03-26T13:52:39.826Z,3.60
2023-03-26T13:55:29.513Z,3.60
2023-03-26T13:58:14.245Z,4.20
2023-03-26T14:00:54.739Z,4.20
2023-03-26T14:03:31.943Z,3.60
2023-03-26T14:06:06.650Z,3.20
2023-03-26T14:08:47.608Z,3.70
2023-03-26T14:11:50.560Z,4.90
2023-03-26T14:15:03.494Z,4.30
2023-03-26T14:17:46.583Z,3.20
2023-03-26T14:20:18.016Z,4.40
2023-03-26T14:23:31.864Z,4.30
2023-03-26T14:26:29.607Z,4.00
2023-03-26T14:29:10.316Z,3.80
2023-03-26T14:32:07.150Z,4.00
2023-03-26T14:34:55.910Z,5.30
2023-03-26T14:37:42.482Z,5.00
2023-03-26T14:40:15.470Z,3.40
2023-03-26T14:43:15.762Z,4.30
2023-03-26T14:46:02.399Z,4.50
2023-03-26T14:48:36.904Z,5.30
2023-03-26T14:51:14.610Z,6.90
2023-03-26T14:53:47.699Z,2.20
2023-03-26T14:56:24.879Z,2.70
2023-03-26T14:59:11.965Z,2.70
2023-03-26T15:02:08.226Z,3.40
2023-03-26T15:04:54.657Z,4.50
2023-03-26T15:07:37.310Z,4.70
2023-03-26T15:10:22.941Z,3.50
2023-03-26T15:13:22.513Z,4.30
2023-03-26T15:16:03.660Z,3.70
2023-03-26T15:18:59.433Z,3.80
2023-03-26T15:21:55.755Z,4.40
2023-03-26T15:24:38.732Z,3.80
2023-03-26T15:27:28.582Z,4.20
2023-03-26T15:30:11.724Z,3.90
2023-03-26T15:33:18.225Z,4.30
2023-03-26T15:36:29.575Z,5.20
2023-03-26T15:39:58.686Z,4.60
2023-03-26T15:42:47.005Z,4.50
2023-03-26T15:45:45.139Z,4.40
2023-03-26T15:48:43.269Z,5.90
2023-03-26T15:51:47.320Z,5.30
2023-03-26T15:54:23.768Z,5.60
2023-03-26T15:57:20.295Z,4.70
2023-03-26T16:00:18.784Z,7.00
2023-03-26T16:03:12.933Z,7.70
2023-03-26T16:06:03.774Z,7.10
2023-03-26T16:08:41.299Z,4.70
2023-03-26T16:11:12.786Z,7.50
2023-03-26T16:13:49.930Z,5.90
2023-03-26T16:16:25.448Z,7.10
2023-03-26T16:19:18.371Z,5.70
2023-03-26T16:22:00.568Z,5.00
2023-03-26T16:24:35.471Z,6.40
2023-03-26T16:27:15.755Z,4.60
2023-03-26T16:30:16.830Z,4.50
2023-03-26T16:32:56.382Z,4.10
2023-03-26T16:35:57.139Z,4.40
2023-03-26T16:38:27.327Z,4.60
2023-03-26T16:41:01.860Z,5.20
2023-03-26T16:43:40.470Z,6.30
2023-03-26T16:46:17.785Z,4.70
2023-03-26T16:48:48.786Z,4.30
2023-03-26T16:51:54.458Z,5.70
2023-03-26T16:54:41.077Z,4.40
2023-03-26T16:57:26.293Z,5.00
2023-03-26T17:00:29.282Z,4.80
2023-03-26T17:03:25.921Z,6.20
2023-03-26T17:05:57.129Z,4.90
2023-03-26T17:08:46.899Z,4.60
2023-03-26T17:11:23.957Z,5.00
2023-03-26T17:14:18.505Z,5.60
2023-03-26T17:16:52.497Z,6.70
2023-03-26T17:19:33.754Z,7.30
2023-03-26T17:22:33.799Z,8.80
2023-03-26T17:25:05.800Z,9.30
2023-03-26T17:28:21.404Z,11.10
2023-03-26T17:31:17.673Z,9.60
2023-03-26T17:33:46.265Z,12.20
2023-03-26T17:36:28.532Z,13.10
2023-03-26T17:39:19.718Z,10.60
2023-03-26T17:42:01.234Z,14.10
2023-03-26T17:44:54.087Z,12.40
2023-03-26T17:47:28.726Z,11.90
2023-03-26T17:50:22.872Z,13.90
2023-03-26T17:53:18.149Z,12.80
2023-03-26T17:55:49.547Z,11.90
2023-03-26T17:58:32.338Z,12.40
2023-03-26T18:01:30.051Z,16.80
2023-03-26T18:04:02.963Z,20.90
2023-03-26T18:06:31.091Z,17.90
2023-03-26T18:09:37.449Z,19.90
2023-03-26T18:12:36.068Z,23.70
2023-03-26T18:15:14.160Z,24.70
2023-03-26T18:17:46.318Z,25.70
2023-03-26T18:20:36.951Z,31.50
2023-03-26T18:23:21.110Z,35.40
2023-03-26T18:25:57.250Z,38.80
2023-03-26T18:28:35.801Z,42.10
2023-03-26T18:31:18.967Z,42.50
2023-03-26T18:33:48.871Z,39.90
2023-03-26T18:36:18.803Z,44.90
2023-03-26T18:38:49.079Z,49.80
2023-03-26T18:41:31.377Z,61.00
2023-03-26T18:44:05.219Z,80.20
2023-03-26T18:46:34.235Z,68.60
2023-03-26T18:49:03.140Z,68.50
2023-03-26T18:51:32.168Z,61.70
2023-03-26T18:54:03.667Z,50.00
2023-03-26T18:56:36.873Z,57.50
2023-03-26T18:59:07.675Z,45.10
2023-03-26T19:01:37.669Z,42.40
2023-03-26T19:04:08.044Z,36.00
2023-03-26T19:06:41.984Z,34.20
2023-03-26T19:09:28.090Z,32.20
2023-03-26T19:12:18.955Z,34.70
2023-03-26T19:14:57.673Z,34.20
2023-03-26T19:17:30.340Z,33.30
2023-03-26T19:19:58.855Z,35.80
2023-03-26T19:22:29.198Z,36.50
2023-03-26T19:25:01.697Z,34.00
2023-03-26T19:27:32.251Z,34.10
2023-03-26T19:30:00.355Z,36.70
2023-03-26T19:32:34.778Z,35.90
2023-03-26T19:35:04.712Z,35.40
2023-03-26T19:37:33.240Z,44.80
2023-03-26T19:40:14.433Z,42.80
2023-03-26T19:42:44.740Z,44.70
2023-03-26T19:45:17.884Z,43.70
2023-03-26T19:47:54.718Z,43.50
2023-03-26T19:50:35.602Z,39.50
2023-03-26T19:53:15.441Z,34.40
2023-03-26T19:56:21.768Z,40.80
2023-03-26T19:58:50.408Z,36.90
2023-03-26T20:01:27.541Z,40.20
2023-03-26T20:03:59.947Z,39.70
2023-03-26T20:09:21.462Z,36.40
2023-03-26T20:11:50.517Z,40.70
2023-03-26T20:14:25.803Z,42.30
2023-03-26T20:16:54.491Z,46.70
2023-03-26T20:19:23.051Z,55.40
2023-03-26T20:21:52.776Z,70.20
2023-03-26T20:24:21.879Z,70.60
2023-03-26T20:26:50.067Z,61.50
2023-03-26T20:29:19.241Z,71.40
2023-03-26T20:31:48.918Z,68.60
2023-03-26T20:34:22.705Z,81.80
2023-03-26T20:37:01.187Z,78.30
2023-03-26T20:39:29.605Z,86.00
2023-03-26T20:41:57.867Z,81.50
2023-03-26T20:44:27.663Z,62.60
2023-03-26T20:46:57.344Z,67.50
2023-03-26T20:49:25.818Z,69.30
2023-03-26T20:51:54.383Z,76.20
2023-03-26T20:54:24.574Z,60.80
2023-03-26T20:56:54.454Z,46.10
2023-03-26T20:59:26.879Z,49.40
2023-03-26T21:01:57.836Z,42.30
2023-03-26T21:04:27.539Z,37.30
2023-03-26T21:07:06.686Z,41.50
2023-03-26T21:09:40.052Z,40.40
2023-03-26T21:12:33.596Z,39.60
2023-03-26T21:15:07.181Z,35.70
2023-03-26T21:17:39.825Z,34.60
2023-03-26T21:20:13.704Z,34.40
2023-03-26T21:22:54.363Z,34.70
2023-03-26T21:25:28.885Z,32.50
2023-03-26T21:28:08.843Z,34.70
2023-03-26T21:30:37.732Z,31.80
2023-03-26T21:33:06.439Z,31.70
2023-03-26T21:35:35.053Z,27.70
2023-03-26T21:38:04.930Z,25.00
2023-03-26T21:40:33.300Z,26.80
2023-03-26T21:43:01.973Z,24.10
2023-03-26T21:45:30.518Z,30.60
2023-03-26T21:47:58.807Z,32.40
2023-03-26T21:50:27.018Z,31.90
2023-03-26T21:52:56.907Z,35.50
2023-03-26T21:55:25.213Z,30.30
2023-03-26T21:58:27.585Z,26.10
2023-03-26T22:01:11.101Z,27.70
2023-03-26T22:04:24.109Z,27.50
2023-03-26T22:07:07.066Z,30.30
2023-03-26T22:09:36.419Z,30.20
2023-03-26T22:12:05.541Z,30.20
2023-03-26T22:14:34.510Z,31.10
2023-03-26T22:17:02.797Z,32.10
2023-03-26T22:19:31.044Z,35.00
2023-03-26T22:22:00.259Z,34.40
2023-03-26T22:24:28.710Z,33.30
2023-03-26T22:26:57.150Z,34.20
2023-03-26T22:29:25.265Z,30.40
2023-03-26T22:31:53.313Z,27.50
2023-03-26T22:34:23.191Z,28.50
2023-03-26T22:36:52.133Z,27.10
2023-03-26T22:39:20.222Z,27.70
2023-03-26T22:41:48.682Z,31.30
2023-03-26T22:44:20.287Z,28.10
2023-03-26T22:46:52.532Z,27.10
2023-03-26T22:49:21.415Z,27.10
2023-03-26T22:51:50.421Z,25.80
2023-03-26T22:54:18.473Z,27.80
2023-03-26T22:56:46.503Z,29.60
2023-03-26T22:59:14.541Z,24.60
2023-03-26T23:01:44.456Z,26.70
2023-03-26T23:04:13.006Z,27.60
2023-03-26T23:07:00.400Z,28.60
2023-03-26T23:09:29.569Z,24.10
2023-03-26T23:11:57.864Z,27.30
2023-03-26T23:14:26.398Z,30.40
2023-03-26T23:16:55.183Z,28.40
2023-03-26T23:19:23.081Z,27.20
2023-03-26T23:21:51.282Z,29.00
2023-03-26T23:24:19.841Z,29.20
2023-03-26T23:26:50.942Z,27.80
2023-03-26T23:29:19.379Z,29.00
2023-03-26T23:31:47.688Z,28.40
2023-03-26T23:34:17.163Z,25.10
2023-03-26T23:36:45.447Z,27.60
2023-03-26T23:39:13.875Z,29.70
2023-03-26T23:41:41.958Z,27.00
2023-03-26T23:44:13.999Z,26.70
2023-03-26T23:46:42.879Z,26.90
2023-03-26T23:49:12.172Z,25.00
2023-03-26T23:51:40.748Z,25.10
2023-03-26T23:54:08.911Z,24.40
2023-03-26T23:56:37.012Z,22.60
2023-03-26T23:59:05.126Z,21.10
